createdAt,value
2022-08-26T00:01:57.664Z,100016.29
2022-08-26T00:04:26.262Z,100013.91
2022-08-26T00:06:55.713Z,100015.64
2022-08-26T00:09:24.816Z,100015.42
2022-08-26T00:11:53.915Z,100016.11
2022-08-26T00:14:27.097Z,100017.96
2022-08-26T00:16:57.947Z,100016.65
2022-08-26T00:19:26.043Z,100017.18
2022-08-26T00:21:54.012Z,100018.05
2022-08-26T00:24:24.179Z,100021.17
2022-08-26T00:26:53.210Z,100021.20
2022-08-26T00:29:21.428Z,100021.42
2022-08-26T00:31:50.600Z,100021.20
2022-08-26T00:34:19.567Z,100021.27
2022-08-26T00:36:47.791Z,100022.88
2022-08-26T00:39:19.821Z,100020.77
2022-08-26T00:41:49.785Z,100017.30
2022-08-26T00:44:18.825Z,100015.17
2022-08-26T00:46:50.886Z,100018.70
2022-08-26T00:49:25.173Z,100015.83
2022-08-26T00:51:56.549Z,100016.35
2022-08-26T00:54:27.327Z,100011.70
2022-08-26T00:56:58.134Z,100013.02
2022-08-26T00:59:32.756Z,100010.73
2022-08-26T01:02:02.678Z,100006.05
2022-08-26T01:04:34.358Z,100006.80
2022-08-26T01:07:01.391Z,100004.89
2022-08-26T01:09:29.206Z,100003.40
2022-08-26T01:12:01.241Z,99997.83
2022-08-26T01:14:32.590Z,99996.92
2022-08-26T01:17:01.992Z,99998.52
2022-08-26T01:19:40.646Z,99998.75
2022-08-26T01:22:13.296Z,99996.56
2022-08-26T01:24:42.629Z,100000.33
2022-08-26T01:27:15.049Z,100002.00
2022-08-26T01:29:44.527Z,100003.54
2022-08-26T01:32:17.779Z,100000.59
2022-08-26T01:34:47.568Z,100000.62
2022-08-26T01:37:18.101Z,100001.95
2022-08-26T01:39:48.708Z,100000.11
2022-08-26T01:42:18.552Z,100005.67
2022-08-26T01:44:50.816Z,100004.20
2022-08-26T01:47:23.525Z,99999.33
2022-08-26T01:49:54.781Z,99997.80
2022-08-26T01:52:28.010Z,100000.43
2022-08-26T01:54:58.518Z,100000.10
2022-08-26T01:57:27.499Z,100005.00
2022-08-26T01:59:59.714Z,100005.21
2022-08-26T02:02:28.737Z,100007.99
2022-08-26T02:05:00.152Z,100012.70
2022-08-26T02:07:29.140Z,100017.38
2022-08-26T02:09:56.879Z,100018.26
2022-08-26T02:12:26.774Z,100020.69
2022-08-26T02:14:59.605Z,100022.05
2022-08-26T02:17:37.017Z,100022.80
2022-08-26T02:20:13.057Z,100025.01
2022-08-26T02:22:45.045Z,100020.89
2022-08-26T02:25:20.276Z,100023.54
2022-08-26T02:27:48.492Z,100031.08
2022-08-26T02:30:20.505Z,100029.58
2022-08-26T02:32:49.546Z,100030.09
2022-08-26T02:35:20.297Z,100027.19
2022-08-26T02:37:49.458Z,100032.81
2022-08-26T02:40:21.838Z,100026.23
2022-08-26T02:42:49.871Z,100027.08
2022-08-26T02:45:23.295Z,100021.83
2022-08-26T02:47:52.728Z,100019.27
2022-08-26T02:50:21.514Z,100016.74
2022-08-26T02:52:50.289Z,100018.59
2022-08-26T02:55:18.407Z,100016.73
2022-08-26T02:57:46.342Z,100015.21
2022-08-26T03:00:16.472Z,100011.45
2022-08-26T03:02:44.362Z,100010.95
2022-08-26T03:05:12.705Z,100009.29
2022-08-26T03:07:40.503Z,100009.03
2022-08-26T03:10:11.889Z,100009.86
2022-08-26T03:12:40.217Z,100007.52
2022-08-26T03:15:17.437Z,100004.73
2022-08-26T03:17:47.680Z,100005.98
2022-08-26T03:20:17.470Z,100007.33
2022-08-26T03:22:45.973Z,100008.28
2022-08-26T03:25:15.784Z,100011.91
2022-08-26T03:27:44.265Z,100011.17
2022-08-26T03:30:32.586Z,100018.72
2022-08-26T03:33:01.613Z,100018.87
2022-08-26T03:35:31.435Z,100020.11
2022-08-26T03:37:59.753Z,100020.53
2022-08-26T03:40:33.123Z,100024.97
2022-08-26T03:43:01.269Z,100025.69
2022-08-26T03:45:29.881Z,100028.40
2022-08-26T03:47:57.881Z,100030.81
2022-08-26T03:50:26.780Z,100029.11
2022-08-26T03:52:55.692Z,100025.42
2022-08-26T03:55:25.424Z,100021.56
2022-08-26T03:57:55.156Z,100020.38
2022-08-26T04:00:23.923Z,100023.63
2022-08-26T04:02:53.425Z,100024.35
2022-08-26T04:05:22.836Z,100023.98
2022-08-26T04:07:50.985Z,100024.92
2022-08-26T04:10:22.510Z,100026.02
2022-08-26T04:12:58.655Z,100029.77
2022-08-26T04:15:28.049Z,100029.83
2022-08-26T04:17:57.243Z,100032.54
2022-08-26T04:20:26.095Z,100033.79
2022-08-26T04:22:53.872Z,100035.23
2022-08-26T04:25:21.854Z,100032.55
2022-08-26T04:27:49.652Z,100028.62
2022-08-26T04:30:19.300Z,100027.47
2022-08-26T04:32:48.083Z,100032.17
2022-08-26T04:35:15.897Z,100028.73
2022-08-26T04:37:44.726Z,100028.05
2022-08-26T04:40:13.195Z,100026.14
2022-08-26T04:42:41.117Z,100027.27
2022-08-26T04:45:10.833Z,100030.64
2022-08-26T04:47:39.680Z,100031.45
2022-08-26T04:50:09.352Z,100026.85
2022-08-26T04:52:38.745Z,100026.42
2022-08-26T04:55:08.624Z,100029.52
2022-08-26T04:57:36.589Z,100033.33
2022-08-26T05:00:08.055Z,100038.30
2022-08-26T05:02:36.626Z,100042.55
2022-08-26T05:05:06.460Z,100043.45
2022-08-26T05:07:34.852Z,100048.38
2022-08-26T05:10:04.434Z,100049.39
2022-08-26T05:12:36.589Z,100048.34
2022-08-26T05:15:09.494Z,100048.27
2022-08-26T05:17:37.315Z,100050.61
2022-08-26T05:20:08.318Z,100050.10
2022-08-26T05:22:36.057Z,100054.20
2022-08-26T05:25:04.596Z,100049.86
2022-08-26T05:27:32.234Z,100049.73
2022-08-26T05:30:01.113Z,100045.00
2022-08-26T05:32:28.897Z,100049.92
2022-08-26T05:34:57.260Z,100050.34
2022-08-26T05:37:26.305Z,100055.68
2022-08-26T05:39:54.143Z,100055.39
2022-08-26T05:42:21.926Z,100055.41
2022-08-26T05:44:53.829Z,100053.94
2022-08-26T05:47:23.506Z,100058.83
2022-08-26T05:49:51.822Z,100059.34
2022-08-26T05:52:19.800Z,100061.70
2022-08-26T05:54:47.742Z,100064.32
2022-08-26T05:57:16.137Z,100067.45
2022-08-26T05:59:46.400Z,100070.42
2022-08-26T06:02:14.575Z,100066.48
2022-08-26T06:04:42.777Z,100070.70
2022-08-26T06:07:11.936Z,100069.97
2022-08-26T06:09:41.267Z,100072.04
2022-08-26T06:12:08.998Z,100071.46
2022-08-26T06:14:36.801Z,100075.04
2022-08-26T06:17:04.668Z,100075.21
2022-08-26T06:19:33.117Z,100084.02
2022-08-26T06:22:23.594Z,100090.90
2022-08-26T06:25:10.130Z,100096.46
2022-08-26T06:27:38.133Z,100106.08
2022-08-26T06:30:09.739Z,100101.23
2022-08-26T06:32:37.454Z,100097.81
2022-08-26T06:35:07.355Z,100099.16
2022-08-26T06:37:40.186Z,100103.86
2022-08-26T06:40:11.530Z,100108.72
2022-08-26T06:42:39.476Z,100114.27
2022-08-26T06:45:09.164Z,100115.24
2022-08-26T06:47:37.398Z,100116.95
2022-08-26T06:50:06.438Z,100109.58
2022-08-26T06:52:34.142Z,100116.00
2022-08-26T06:55:02.584Z,100115.04
2022-08-26T06:57:32.127Z,100113.69
2022-08-26T07:00:00.508Z,100110.70
2022-08-26T07:02:28.468Z,100104.24
2022-08-26T07:04:56.859Z,100102.31
2022-08-26T07:07:24.734Z,100099.88
2022-08-26T07:09:52.782Z,100097.15
2022-08-26T07:12:20.634Z,100104.48
2022-08-26T07:14:48.897Z,100105.77
2022-08-26T07:17:16.806Z,100106.45
2022-08-26T07:19:44.716Z,100112.63
2022-08-26T07:22:13.701Z,100117.36
2022-08-26T07:24:42.331Z,100114.90
2022-08-26T07:27:13.414Z,100109.40
2022-08-26T07:29:42.724Z,100109.55
2022-08-26T07:32:12.803Z,100113.95
2022-08-26T07:34:41.832Z,100115.77
2022-08-26T07:37:10.247Z,100113.52
2022-08-26T07:39:38.591Z,100106.98
2022-08-26T07:42:10.303Z,100108.86
2022-08-26T07:44:39.237Z,100113.31
2022-08-26T07:47:19.407Z,100115.34
2022-08-26T07:49:55.044Z,100109.70
2022-08-26T07:52:26.691Z,100106.52
2022-08-26T07:54:57.286Z,100105.88
2022-08-26T07:57:25.705Z,100111.41
2022-08-26T07:59:55.019Z,100114.33
2022-08-26T08:02:24.565Z,100113.18
2022-08-26T08:04:53.987Z,100108.58
2022-08-26T08:07:38.556Z,100108.17
2022-08-26T08:10:13.188Z,100106.55
2022-08-26T08:12:41.972Z,100105.27
2022-08-26T08:15:13.176Z,100103.77
2022-08-26T08:17:42.667Z,100104.66
2022-08-26T08:20:14.043Z,100104.89
2022-08-26T08:22:43.008Z,100101.63
2022-08-26T08:25:12.231Z,100104.02
2022-08-26T08:27:42.456Z,100097.66
2022-08-26T08:30:13.817Z,100104.00
2022-08-26T08:32:43.173Z,100102.37
2022-08-26T08:35:13.717Z,100105.13
2022-08-26T08:37:42.994Z,100105.88
2022-08-26T08:40:16.731Z,100111.40
2022-08-26T08:42:47.577Z,100107.63
2022-08-26T08:45:21.902Z,100108.17
2022-08-26T08:47:54.861Z,100105.61
2022-08-26T08:50:28.773Z,100103.17
2022-08-26T08:53:11.518Z,100103.52
2022-08-26T08:55:55.878Z,100106.38
2022-08-26T08:58:31.601Z,100105.33
2022-08-26T09:01:06.022Z,100109.67
2022-08-26T09:03:44.903Z,100110.04
2022-08-26T09:06:18.177Z,100112.43
2022-08-26T09:08:50.686Z,100113.81
2022-08-26T09:11:20.053Z,100106.20
2022-08-26T09:13:52.759Z,100102.71
2022-08-26T09:16:24.736Z,100100.23
2022-08-26T09:19:14.869Z,100095.81
2022-08-26T09:21:54.217Z,100089.28
2022-08-26T09:24:28.398Z,100082.18
2022-08-26T09:26:58.406Z,100086.39
2022-08-26T09:29:28.506Z,100083.10
2022-08-26T09:32:15.585Z,100080.89
2022-08-26T09:34:56.977Z,100078.10
2022-08-26T09:37:43.292Z,100078.71
2022-08-26T09:40:27.031Z,100087.08
2022-08-26T09:43:13.376Z,100089.48
2022-08-26T09:45:50.746Z,100093.48
2022-08-26T09:48:30.640Z,100091.08
2022-08-26T09:51:01.378Z,100083.62
2022-08-26T09:53:32.414Z,100073.02
2022-08-26T09:56:16.879Z,100064.02
2022-08-26T09:58:47.259Z,100057.38
2022-08-26T10:01:34.194Z,100053.38
2022-08-26T10:04:09.129Z,100046.63
2022-08-26T10:06:40.928Z,100044.56
2022-08-26T10:09:13.393Z,100047.05
2022-08-26T10:11:45.547Z,100047.08
2022-08-26T10:14:20.669Z,100041.52
2022-08-26T10:16:54.091Z,100038.33
2022-08-26T10:19:40.217Z,100030.61
2022-08-26T10:22:21.960Z,100023.42
2022-08-26T10:24:55.261Z,100014.36
2022-08-26T10:27:32.421Z,100013.24
2022-08-26T10:30:06.420Z,100012.17
2022-08-26T10:32:41.258Z,100010.27
2022-08-26T10:35:12.469Z,100009.52
2022-08-26T10:37:45.834Z,100010.50
2022-08-26T10:40:19.548Z,100010.38
2022-08-26T10:42:54.588Z,100006.03
2022-08-26T10:45:25.996Z,100008.17
2022-08-26T10:48:00.241Z,100009.60
2022-08-26T10:50:32.886Z,100002.30
2022-08-26T10:53:07.644Z,100000.95
2022-08-26T10:55:47.627Z,99994.89
2022-08-26T10:58:30.195Z,99985.92
2022-08-26T11:01:23.342Z,99981.02
2022-08-26T11:04:01.418Z,99981.51
2022-08-26T11:06:30.985Z,99978.04
2022-08-26T11:09:01.042Z,99975.58
2022-08-26T11:11:47.609Z,99971.56
2022-08-26T11:14:45.966Z,99967.54
2022-08-26T11:17:54.665Z,99969.79
2022-08-26T11:20:34.163Z,99969.03
2022-08-26T11:23:34.224Z,99962.69
2022-08-26T11:26:18.937Z,99960.70
2022-08-26T11:29:13.449Z,99949.88
2022-08-26T11:31:56.255Z,99945.79
2022-08-26T11:34:56.226Z,99943.29
2022-08-26T11:37:32.327Z,99940.31
2022-08-26T11:40:04.211Z,99935.89
2022-08-26T11:42:40.189Z,99930.58
2022-08-26T11:45:19.203Z,99926.46
2022-08-26T11:47:47.496Z,99924.11
2022-08-26T11:50:20.729Z,99925.63
2022-08-26T11:52:53.218Z,99925.27
2022-08-26T11:55:23.239Z,99922.66
2022-08-26T11:57:55.398Z,99921.44
2022-08-26T12:00:27.186Z,99922.88
2022-08-26T12:02:55.689Z,99927.52
2022-08-26T12:05:31.191Z,99920.95
2022-08-26T12:08:06.269Z,99918.68
2022-08-26T12:10:34.804Z,99916.06
2022-08-26T12:13:05.499Z,99910.56
2022-08-26T12:15:34.826Z,99900.77
2022-08-26T12:18:17.093Z,99897.45
2022-08-26T12:20:53.139Z,99891.06
2022-08-26T12:23:34.973Z,99885.81
2022-08-26T12:26:07.924Z,99885.45
2022-08-26T12:28:44.085Z,99883.67
2022-08-26T12:31:19.118Z,99886.23
2022-08-26T12:33:48.843Z,99883.28
2022-08-26T12:36:22.367Z,99881.15
2022-08-26T12:38:50.213Z,99879.71
2022-08-26T12:41:39.049Z,99876.27
2022-08-26T12:44:07.219Z,99874.88
2022-08-26T12:46:35.445Z,99875.65
2022-08-26T12:49:03.599Z,99875.51
2022-08-26T12:51:34.052Z,99873.61
2022-08-26T12:54:06.134Z,99867.52
2022-08-26T12:56:38.312Z,99867.90
2022-08-26T12:59:18.878Z,99862.23
2022-08-26T13:01:48.698Z,99860.69
2022-08-26T13:04:38.640Z,99856.78
2022-08-26T13:07:29.834Z,99849.29
2022-08-26T13:09:58.802Z,99843.65
2022-08-26T13:12:29.892Z,99838.45
2022-08-26T13:14:58.904Z,99830.58
2022-08-26T13:17:28.160Z,99825.48
2022-08-26T13:20:02.696Z,99817.77
2022-08-26T13:22:31.876Z,99814.36
2022-08-26T13:24:59.924Z,99811.52
2022-08-26T13:27:28.363Z,99801.35
2022-08-26T13:29:56.882Z,99797.66
2022-08-26T13:32:27.772Z,99801.36
2022-08-26T13:34:57.154Z,99792.17
2022-08-26T13:37:34.751Z,99786.73
2022-08-26T13:40:05.613Z,99790.27
2022-08-26T13:42:34.415Z,99788.26
2022-08-26T13:45:04.416Z,99791.80
2022-08-26T13:47:32.502Z,99794.48
2022-08-26T13:50:00.270Z,99789.50
2022-08-26T13:52:30.746Z,99786.41
2022-08-26T13:54:59.723Z,99787.33
2022-08-26T13:57:29.160Z,99786.77
2022-08-26T13:59:58.415Z,99790.78
2022-08-26T14:02:26.848Z,99786.57
2022-08-26T14:04:55.302Z,99783.28
2022-08-26T14:07:23.248Z,99783.92
2022-08-26T14:09:51.084Z,99790.25
2022-08-26T14:12:18.888Z,99787.71
2022-08-26T14:14:47.012Z,99786.35
2022-08-26T14:17:19.760Z,99785.55
2022-08-26T14:19:49.548Z,99785.93
2022-08-26T14:22:19.409Z,99788.95
2022-08-26T14:24:47.390Z,99786.83
2022-08-26T14:27:15.095Z,99790.04
2022-08-26T14:29:42.977Z,99780.59
2022-08-26T14:32:18.011Z,99781.30
2022-08-26T14:34:49.451Z,99777.55
2022-08-26T14:37:18.064Z,99769.95
2022-08-26T14:39:46.339Z,99773.92
2022-08-26T14:42:17.011Z,99768.14
2022-08-26T14:44:48.243Z,99764.49
2022-08-26T14:47:15.958Z,99769.30
2022-08-26T14:49:43.752Z,99767.98
2022-08-26T14:52:11.665Z,99766.41
2022-08-26T14:54:39.335Z,99765.08
2022-08-26T14:57:09.951Z,99766.23
2022-08-26T14:59:39.589Z,99763.98
2022-08-26T15:02:09.918Z,99762.91
2022-08-26T15:04:41.869Z,99762.90
2022-08-26T15:07:09.659Z,99762.63
2022-08-26T15:09:40.666Z,99764.77
2022-08-26T15:12:09.019Z,99769.14
2022-08-26T15:14:36.894Z,99768.89
2022-08-26T15:17:04.779Z,99773.05
2022-08-26T15:19:32.720Z,99779.04
2022-08-26T15:22:00.471Z,99786.91
2022-08-26T15:24:28.667Z,99792.73
2022-08-26T15:26:57.005Z,99800.16
2022-08-26T15:29:24.716Z,99810.91
2022-08-26T15:31:55.235Z,99810.78
2022-08-26T15:34:26.225Z,99810.95
2022-08-26T15:36:54.612Z,99800.10
2022-08-26T15:39:22.419Z,99795.36
2022-08-26T15:41:50.918Z,99792.15
2022-08-26T15:44:18.984Z,99794.96
2022-08-26T15:46:48.899Z,99793.92
2022-08-26T15:49:18.652Z,99806.17
2022-08-26T15:51:49.599Z,99821.77
2022-08-26T15:54:19.721Z,99829.48
2022-08-26T15:56:49.829Z,99838.80
2022-08-26T15:59:18.029Z,99842.70
2022-08-26T16:01:46.297Z,99840.70
2022-08-26T16:04:14.426Z,99836.05
2022-08-26T16:06:42.872Z,99844.17
2022-08-26T16:09:11.030Z,99847.80
2022-08-26T16:11:38.914Z,99849.20
2022-08-26T16:14:07.151Z,99857.07
2022-08-26T16:16:39.037Z,99858.30
2022-08-26T16:19:07.754Z,99857.77
2022-08-26T16:21:35.926Z,99857.57
2022-08-26T16:24:05.668Z,99861.86
2022-08-26T16:26:35.560Z,99868.70
2022-08-26T16:29:07.351Z,99883.42
2022-08-26T16:31:37.668Z,99877.64
2022-08-26T16:34:06.050Z,99886.77
2022-08-26T16:36:35.105Z,99889.69
2022-08-26T16:39:04.284Z,99897.17
2022-08-26T16:41:33.123Z,99899.79
2022-08-26T16:44:01.065Z,99897.70
2022-08-26T16:46:29.652Z,99899.25
2022-08-26T16:48:58.239Z,99900.02
2022-08-26T16:51:27.796Z,99905.84
2022-08-26T16:53:56.971Z,99911.00
2022-08-26T16:56:33.415Z,99907.36
2022-08-26T16:59:03.333Z,99906.34
2022-08-26T17:01:31.240Z,99908.80
2022-08-26T17:03:59.276Z,99918.67
2022-08-26T17:06:27.080Z,99919.13
2022-08-26T17:08:54.838Z,99932.17
2022-08-26T17:11:22.562Z,99932.08
2022-08-26T17:13:50.334Z,99932.27
2022-08-26T17:16:18.057Z,99930.88
2022-08-26T17:18:45.875Z,99930.33
2022-08-26T17:21:14.255Z,99925.48
2022-08-26T17:23:43.043Z,99926.27
2022-08-26T17:26:11.938Z,99927.36
2022-08-26T17:28:40.001Z,99928.89
2022-08-26T17:31:10.024Z,99934.46
2022-08-26T17:33:38.217Z,99932.23
2022-08-26T17:36:08.115Z,99928.30
2022-08-26T17:38:37.028Z,99925.73
2022-08-26T17:41:08.589Z,99928.30
2022-08-26T17:43:37.730Z,99934.27
2022-08-26T17:46:07.884Z,99937.06
2022-08-26T17:48:37.070Z,99945.32
2022-08-26T17:51:09.845Z,99948.45
2022-08-26T17:53:37.616Z,99947.89
2022-08-26T17:56:08.749Z,99948.84
2022-08-26T17:58:35.726Z,99953.79
2022-08-26T18:01:05.935Z,99954.54
2022-08-26T18:03:34.769Z,99954.91
2022-08-26T18:06:03.296Z,99959.04
2022-08-26T18:08:31.063Z,99956.45
2022-08-26T18:10:58.760Z,99955.06
2022-08-26T18:13:26.533Z,99958.61
2022-08-26T18:15:54.315Z,99959.52
2022-08-26T18:18:22.048Z,99957.95
2022-08-26T18:20:54.070Z,99956.38
2022-08-26T18:23:31.339Z,99955.89
2022-08-26T18:25:59.253Z,99957.09
2022-08-26T18:28:27.156Z,99953.71
2022-08-26T18:30:55.004Z,99958.98
2022-08-26T18:33:25.318Z,99960.63
2022-08-26T18:35:53.280Z,99966.91
2022-08-26T18:38:20.926Z,99970.16
2022-08-26T18:40:50.225Z,99982.24
2022-08-26T18:43:17.904Z,99986.29
2022-08-26T18:45:45.759Z,99986.62
2022-08-26T18:48:14.178Z,99993.34
2022-08-26T18:50:45.802Z,99998.32
2022-08-26T18:53:15.152Z,100002.86
2022-08-26T18:55:43.156Z,100008.91
2022-08-26T18:58:11.015Z,100010.03
2022-08-26T19:00:39.042Z,100013.34
2022-08-26T19:03:08.292Z,100021.38
2022-08-26T19:05:47.078Z,100024.12
2022-08-26T19:08:14.815Z,100024.55
2022-08-26T19:10:42.549Z,100027.27
2022-08-26T19:13:10.472Z,100028.38
2022-08-26T19:15:39.924Z,100031.11
2022-08-26T19:18:09.117Z,100033.19
2022-08-26T19:20:43.565Z,100040.27
2022-08-26T19:23:30.887Z,100043.84
2022-08-26T19:26:02.418Z,100049.97
2022-08-26T19:28:29.274Z,100056.65
2022-08-26T19:30:57.148Z,100059.94
2022-08-26T19:33:24.979Z,100062.05
2022-08-26T19:35:53.054Z,100064.09
2022-08-26T19:38:20.815Z,100066.41
2022-08-26T19:40:48.688Z,100070.55
2022-08-26T19:43:16.629Z,100067.16
2022-08-26T19:45:44.838Z,100068.39
2022-08-26T19:48:12.605Z,100071.84
2022-08-26T19:50:41.551Z,100072.42
2022-08-26T19:53:09.435Z,100070.91
2022-08-26T19:55:37.081Z,100075.40
2022-08-26T19:58:04.947Z,100072.01
2022-08-26T20:00:33.936Z,100075.45
2022-08-26T20:03:02.611Z,100081.55
2022-08-26T20:05:30.495Z,100080.98
2022-08-26T20:07:58.191Z,100081.31
2022-08-26T20:10:26.257Z,100083.77
2022-08-26T20:12:54.113Z,100084.19
2022-08-26T20:15:23.165Z,100081.96
2022-08-26T20:17:51.647Z,100083.80
2022-08-26T20:20:37.853Z,100088.38
2022-08-26T20:23:05.705Z,100095.02
2022-08-26T20:25:34.347Z,100093.51
2022-08-26T20:28:02.634Z,100099.69
2022-08-26T20:30:30.431Z,100106.64
2022-08-26T20:32:58.592Z,100105.25
2022-08-26T20:35:26.724Z,100102.89
2022-08-26T20:37:54.600Z,100106.48
2022-08-26T20:40:22.644Z,100107.21
2022-08-26T20:42:50.576Z,100107.98
2022-08-26T20:45:18.556Z,100109.96
2022-08-26T20:47:46.203Z,100108.31
2022-08-26T20:50:13.945Z,100115.32
2022-08-26T20:52:41.925Z,100111.04
2022-08-26T20:55:10.498Z,100114.30
2022-08-26T20:57:38.264Z,100112.80
2022-08-26T21:00:08.336Z,100106.84
2022-08-26T21:02:36.205Z,100100.16
2022-08-26T21:05:05.710Z,100100.16
2022-08-26T21:07:33.520Z,100092.35
2022-08-26T21:10:01.306Z,100093.13
2022-08-26T21:12:29.323Z,100086.02
2022-08-26T21:14:57.087Z,100088.26
2022-08-26T21:17:24.818Z,100089.63
2022-08-26T21:19:52.969Z,100090.49
2022-08-26T21:22:20.716Z,100093.95
2022-08-26T21:24:48.460Z,100087.15
2022-08-26T21:27:21.302Z,100093.57
2022-08-26T21:29:54.200Z,100102.05
2022-08-26T21:32:21.866Z,100107.15
2022-08-26T21:34:49.597Z,100111.05
2022-08-26T21:37:17.252Z,100112.80
2022-08-26T21:39:44.969Z,100117.77
2022-08-26T21:42:12.613Z,100117.64
2022-08-26T21:44:40.330Z,100113.19
2022-08-26T21:47:08.056Z,100113.40
2022-08-26T21:49:35.942Z,100119.42
2022-08-26T21:52:04.522Z,100123.11
2022-08-26T21:54:32.403Z,100126.84
2022-08-26T21:57:00.063Z,100129.11
2022-08-26T21:59:27.736Z,100133.35
2022-08-26T22:01:55.718Z,100136.67
2022-08-26T22:04:23.914Z,100138.91
2022-08-26T22:06:54.806Z,100140.09
2022-08-26T22:09:24.374Z,100143.52
2022-08-26T22:11:53.022Z,100144.55
2022-08-26T22:14:24.595Z,100143.95
2022-08-26T22:16:55.434Z,100149.17
2022-08-26T22:19:23.780Z,100150.63
2022-08-26T22:21:53.891Z,100149.11
2022-08-26T22:24:23.974Z,100147.40
2022-08-26T22:26:52.441Z,100144.44
2022-08-26T22:29:20.500Z,100142.39
2022-08-26T22:31:48.267Z,100141.61
2022-08-26T22:34:16.613Z,100141.46
2022-08-26T22:36:46.824Z,100142.73
2022-08-26T22:39:16.733Z,100143.20
2022-08-26T22:41:47.728Z,100143.52
2022-08-26T22:44:17.438Z,100148.48
2022-08-26T22:46:46.095Z,100145.89
2022-08-26T22:49:15.701Z,100148.94
2022-08-26T22:51:43.929Z,100147.85
2022-08-26T22:54:12.094Z,100149.29
2022-08-26T22:56:40.472Z,100152.08
2022-08-26T22:59:08.452Z,100153.25
2022-08-26T23:01:38.511Z,100154.64
2022-08-26T23:04:07.571Z,100155.11
2022-08-26T23:06:36.770Z,100155.48
2022-08-26T23:09:05.948Z,100156.98
2022-08-26T23:11:34.218Z,100160.10
2022-08-26T23:14:02.301Z,100159.95
2022-08-26T23:16:39.114Z,100160.96
2022-08-26T23:19:08.481Z,100155.83
2022-08-26T23:21:36.179Z,100156.83
2022-08-26T23:24:05.107Z,100159.11
2022-08-26T23:26:33.945Z,100159.09
2022-08-26T23:29:04.752Z,100165.39
2022-08-26T23:31:33.296Z,100163.39
2022-08-26T23:34:19.090Z,100158.48
2022-08-26T23:36:47.145Z,100155.58
2022-08-26T23:39:15.457Z,100157.00
2022-08-26T23:41:43.287Z,100155.95
2022-08-26T23:44:11.588Z,100153.23
2022-08-26T23:46:39.490Z,100152.33
2022-08-26T23:49:07.198Z,100149.95
2022-08-26T23:51:49.560Z,100149.38
2022-08-26T23:54:18.794Z,100150.69
2022-08-26T23:56:46.451Z,100150.15
2022-08-26T23:59:14.872Z,100151.04
